Time;durP1;ratioP1;P1;durP2;ratioP2;P2;SDS_P1;SDS_P2;PMS_P1;PMS_P2;Temp;Humidity;BMP_temperature;BMP_pressure;BME280_temperature;BME280_humidity;BME280_pressure;Samples;Min_cycle;Max_cycle;Signal;HPM_P1;HPM_P2
2021/12/26 00:01:53;;;;;;;4.88;3.00;;;-6.50;99.90;;;;;;2125484;67;20274;-70
2021/12/26 00:04:36;;;;;;;5.63;2.70;;;-5.80;99.90;;;;;;2125832;67;20301;-70
2021/12/26 00:07:18;;;;;;;7.28;2.80;;;-6.50;99.90;;;;;;2125307;67;20293;-70
2021/12/26 00:09:59;;;;;;;4.40;3.00;;;-6.50;99.90;;;;;;2141937;66;20261;-70
2021/12/26 00:12:40;;;;;;;4.80;3.08;;;-6.50;99.90;;;;;;2132531;67;20275;-70
2021/12/26 00:15:23;;;;;;;8.68;3.22;;;-6.30;99.90;;;;;;2132430;67;20167;-71
2021/12/26 00:18:10;;;;;;;5.68;3.00;;;-6.50;99.90;;;;;;2138452;66;20265;-71
2021/12/26 00:20:51;;;;;;;4.47;3.03;;;-6.50;99.90;;;;;;2138732;66;20225;-70
2021/12/26 00:23:33;;;;;;;4.40;2.90;;;-6.50;99.90;;;;;;2132736;67;20322;-71
2021/12/26 00:26:14;;;;;;;5.28;3.10;;;-6.60;99.90;;;;;;2148245;66;20317;-70
2021/12/26 00:29:03;;;;;;;5.25;2.72;;;-6.60;99.90;;;;;;2153351;66;20310;-71
2021/12/26 00:31:46;;;;;;;8.57;3.35;;;-6.70;99.90;;;;;;2153594;66;20229;-70
2021/12/26 00:34:28;;;;;;;5.05;2.92;;;-6.70;99.90;;;;;;2145597;66;20800;-70
2021/12/26 00:37:10;;;;;;;5.60;3.00;;;-6.70;99.90;;;;;;2145652;66;20179;-70
2021/12/26 00:39:52;;;;;;;5.38;3.30;;;-6.70;99.90;;;;;;2153123;66;20213;-70
2021/12/26 00:42:34;;;;;;;4.72;3.05;;;-6.70;99.90;;;;;;2131083;67;20239;-70
2021/12/26 00:45:19;;;;;;;7.53;2.97;;;-6.70;99.90;;;;;;2138789;67;20379;-70
2021/12/26 00:48:03;;;;;;;6.70;3.22;;;-6.70;99.90;;;;;;2132330;66;20342;-70
2021/12/26 00:50:45;;;;;;;5.63;2.55;;;-6.70;99.90;;;;;;2138542;67;20900;-69
2021/12/26 00:53:28;;;;;;;4.93;2.65;;;-6.70;99.90;;;;;;2144136;66;20221;-70
2021/12/26 00:56:10;;;;;;;5.88;3.25;;;-6.70;99.90;;;;;;2131967;67;20830;-71
2021/12/26 00:58:51;;;;;;;6.20;2.85;;;-6.70;99.90;;;;;;2132639;67;20268;-70
2021/12/26 01:01:34;;;;;;;5.65;2.75;;;-6.70;99.90;;;;;;2139740;66;20383;-71
2021/12/26 01:04:16;;;;;;;8.73;3.17;;;-6.70;99.90;;;;;;2132042;67;20246;-71
2021/12/26 01:06:58;;;;;;;5.00;2.92;;;-6.70;99.90;;;;;;2132089;67;20342;-69
2021/12/26 01:09:46;;;;;;;4.32;2.25;;;-6.70;99.90;;;;;;2137982;67;20478;-70
2021/12/26 01:12:31;;;;;;;3.88;2.30;;;-6.60;99.90;;;;;;2136477;66;20210;-70
2021/12/26 01:15:13;;;;;;;3.80;2.17;;;-6.20;99.90;;;;;;2122938;67;20330;-71
2021/12/26 01:17:58;;;;;;;4.93;2.10;;;-6.60;99.90;;;;;;2119863;67;20853;-69
2021/12/26 01:23:30;;;;;;;2.10;1.85;;;-6.60;99.90;;;;;;2138581;66;20372;-70
2021/12/26 01:26:16;;;;;;;3.63;2.15;;;-6.60;99.90;;;;;;2132183;67;20247;-71
2021/12/26 01:29:02;;;;;;;3.42;2.60;;;-6.60;99.90;;;;;;2144679;66;20201;-70
2021/12/26 01:31:46;;;;;;;3.42;2.20;;;-6.60;99.90;;;;;;2135975;66;20305;-70
2021/12/26 01:34:28;;;;;;;3.10;1.85;;;-6.60;99.90;;;;;;2124230;67;20176;-70
2021/12/26 01:37:10;;;;;;;6.07;2.80;;;-6.60;99.90;;;;;;2117279;67;20253;-69
2021/12/26 01:39:51;;;;;;;3.17;2.60;;;-6.60;99.90;;;;;;2124507;67;20704;-70
2021/12/26 01:42:34;;;;;;;2.60;2.03;;;-6.70;99.90;;;;;;2122404;67;20714;-71
2021/12/26 01:45:16;;;;;;;4.03;2.00;;;-6.60;99.90;;;;;;2135697;66;20317;-70
2021/12/26 01:48:03;;;;;;;2.92;1.85;;;-6.60;99.90;;;;;;2143603;66;20570;-71
2021/12/26 01:50:49;;;;;;;2.03;1.80;;;-6.60;99.90;;;;;;2153381;66;20264;-69
2021/12/26 01:53:37;;;;;;;3.28;1.70;;;-6.60;99.90;;;;;;2152950;66;20586;-70
2021/12/26 01:56:19;;;;;;;4.93;2.03;;;-6.60;99.90;;;;;;2153708;66;20199;-70
2021/12/26 01:59:03;;;;;;;3.08;1.90;;;-6.60;99.90;;;;;;2144398;66;20723;-71
2021/12/26 02:01:47;;;;;;;3.17;2.10;;;-6.60;99.90;;;;;;2152399;66;20374;-71
2021/12/26 02:04:29;;;;;;;3.17;1.98;;;-6.60;99.90;;;;;;2139117;66;20183;-69
2021/12/26 02:07:12;;;;;;;4.03;2.03;;;-6.70;99.90;;;;;;2136684;66;20386;-69
2021/12/26 02:09:54;;;;;;;3.67;2.03;;;-6.80;99.90;;;;;;2138786;66;20167;-69
2021/12/26 02:12:35;;;;;;;3.58;2.28;;;-6.80;99.90;;;;;;2126029;67;20215;-69
2021/12/26 02:15:17;;;;;;;4.38;2.10;;;-6.80;99.90;;;;;;2117910;67;20372;-69
2021/12/26 02:17:59;;;;;;;3.40;1.70;;;-6.80;99.90;;;;;;2119201;67;20302;-68
2021/12/26 02:23:34;;;;;;;5.85;2.42;;;-6.90;99.90;;;;;;2118484;67;20333;-69
2021/12/26 02:29:16;;;;;;;3.28;2.03;;;-6.80;99.90;;;;;;2132766;67;20392;-69
2021/12/26 02:32:03;;;;;;;4.38;2.03;;;-6.80;99.90;;;;;;2116725;67;20263;-69
2021/12/26 02:34:44;;;;;;;2.88;1.83;;;-6.80;99.90;;;;;;2125495;67;20199;-70
2021/12/26 02:37:26;;;;;;;2.83;1.85;;;-6.90;99.90;;;;;;2124603;67;20877;-70
2021/12/26 02:40:10;;;;;;;3.28;1.73;;;-6.90;99.90;;;;;;2120606;67;20167;-69
2021/12/26 02:42:52;;;;;;;5.07;1.60;;;-6.90;99.90;;;;;;2124021;67;20876;-70
2021/12/26 02:45:37;;;;;;;2.28;1.58;;;-6.80;99.90;;;;;;2132059;67;20167;-70
2021/12/26 02:48:18;;;;;;;4.82;1.95;;;-6.80;99.90;;;;;;2135006;67;20311;-69
2021/12/26 02:51:01;;;;;;;4.85;3.10;;;-6.80;99.90;;;;;;2125925;67;20204;-69
2021/12/26 02:53:44;;;;;;;3.90;1.58;;;-6.80;99.90;;;;;;2112141;67;20669;-70
2021/12/26 02:56:29;;;;;;;3.28;1.80;;;-5.70;99.90;;;;;;2104443;67;20332;-69
2021/12/26 02:59:11;;;;;;;2.63;1.58;;;-6.80;99.90;;;;;;2109047;67;20388;-69
2021/12/26 03:01:52;;;;;;;4.68;1.70;;;-6.80;99.90;;;;;;2099326;67;20205;-69
2021/12/26 03:04:35;;;;;;;2.25;1.65;;;-6.80;99.90;;;;;;2111854;67;20166;-68
2021/12/26 03:07:20;;;;;;;2.55;1.83;;;-6.80;99.90;;;;;;2121911;67;20185;-69
2021/12/26 03:10:03;;;;;;;5.53;2.53;;;-6.80;99.90;;;;;;2125493;67;20252;-70
2021/12/26 03:13:10;;;;;;;2.83;2.15;;;-6.80;99.90;;;;;;2111581;67;20209;-69
2021/12/26 03:15:57;;;;;;;9.15;2.38;;;-6.80;99.90;;;;;;2112519;67;20239;-69
2021/12/26 03:18:41;;;;;;;3.83;2.22;;;-6.80;99.90;;;;;;2125342;67;20283;-70
2021/12/26 03:21:25;;;;;;;2.88;1.70;;;-6.80;99.90;;;;;;2131679;67;20260;-70
2021/12/26 03:24:08;;;;;;;;;;;-6.30;99.90;;;;;;2136319;66;20780;-68
2021/12/26 03:26:50;;;;;;;1.75;1.42;;;-6.80;99.90;;;;;;2142247;66;20216;-70
2021/12/26 03:29:33;;;;;;;3.97;1.88;;;-6.70;99.90;;;;;;2136992;67;20421;-70
2021/12/26 03:32:16;;;;;;;5.32;2.20;;;-6.90;99.90;;;;;;2125750;67;20184;-68
2021/12/26 03:35:01;;;;;;;3.38;2.05;;;-6.80;99.90;;;;;;2124597;67;20168;-70
2021/12/26 03:37:46;;;;;;;2.35;1.60;;;-6.80;99.90;;;;;;2125574;67;20272;-71
2021/12/26 03:40:28;;;;;;;2.08;1.52;;;-6.90;99.90;;;;;;2141602;66;20190;-69
2021/12/26 03:43:10;;;;;;;2.90;1.83;;;-6.90;99.90;;;;;;2147017;66;20266;-70
2021/12/26 03:45:55;;;;;;;2.38;1.58;;;-6.90;99.90;;;;;;2146714;66;20340;-70
2021/12/26 03:48:37;;;;;;;2.20;1.65;;;-6.90;99.90;;;;;;2159012;66;20254;-70
2021/12/26 03:51:20;;;;;;;3.88;1.60;;;-6.90;99.90;;;;;;2145972;66;20194;-70
2021/12/26 03:54:05;;;;;;;3.97;1.70;;;-6.90;99.90;;;;;;2152100;66;20378;-70
2021/12/26 03:56:48;;;;;;;3.88;2.00;;;-7.00;99.90;;;;;;2132305;67;20283;-70
2021/12/26 03:59:32;;;;;;;3.45;1.58;;;-7.00;99.90;;;;;;2140843;66;20335;-70
2021/12/26 04:02:15;;;;;;;4.20;2.15;;;-7.00;99.90;;;;;;2146425;66;20405;-70
2021/12/26 04:04:57;;;;;;;3.95;1.80;;;-7.00;99.90;;;;;;2132282;67;20203;-70
2021/12/26 04:07:39;;;;;;;2.17;1.33;;;-7.00;99.90;;;;;;2146694;66;20215;-70
2021/12/26 04:10:22;;;;;;;3.88;1.70;;;-6.90;99.90;;;;;;2138889;66;20237;-70
2021/12/26 04:13:06;;;;;;;3.13;1.33;;;-6.90;99.90;;;;;;2139334;67;20529;-69
2021/12/26 04:15:49;;;;;;;3.65;1.65;;;-6.90;99.90;;;;;;2131715;67;20199;-70
2021/12/26 04:18:34;;;;;;;2.22;1.50;;;-6.90;99.90;;;;;;2123033;67;20176;-69
2021/12/26 04:21:16;;;;;;;1.75;1.40;;;-6.90;99.90;;;;;;2122694;67;20180;-70
2021/12/26 04:23:59;;;;;;;6.03;2.03;;;-6.90;99.90;;;;;;2131782;67;20348;-70
2021/12/26 04:26:41;;;;;;;6.13;2.05;;;-6.80;99.90;;;;;;2113165;67;20181;-70
2021/12/26 04:29:23;;;;;;;1.90;1.30;;;-6.90;99.90;;;;;;2104144;68;20588;-70
2021/12/26 04:32:06;;;;;;;2.70;1.65;;;-6.00;99.90;;;;;;2104288;68;20222;-69
2021/12/26 04:34:48;;;;;;;6.13;1.98;;;-6.80;99.90;;;;;;2103776;68;20707;-70
2021/12/26 04:37:34;;;;;;;3.10;1.70;;;-6.80;99.90;;;;;;2108765;67;20306;-69
2021/12/26 04:40:20;;;;;;;3.17;1.98;;;-6.90;99.90;;;;;;2097412;68;20266;-69
2021/12/26 04:43:05;;;;;;;3.38;1.60;;;-6.90;99.90;;;;;;2092692;68;20280;-70
2021/12/26 04:45:50;;;;;;;1.45;1.13;;;-7.00;99.90;;;;;;2083038;68;20202;-70
2021/12/26 04:48:34;;;;;;;3.28;1.60;;;-7.10;99.90;;;;;;2105164;67;20190;-69
2021/12/26 04:51:18;;;;;;;3.70;1.92;;;-7.10;99.90;;;;;;2116759;67;20169;-70
2021/12/26 04:54:00;;;;;;;4.45;1.80;;;-7.10;99.90;;;;;;2105440;67;20570;-69
2021/12/26 04:56:43;;;;;;;3.45;1.60;;;-7.10;99.90;;;;;;2110738;67;20289;-70
2021/12/26 04:59:27;;;;;;;;;;;-7.10;99.90;;;;;;2114261;67;20266;-69
2021/12/26 05:02:10;;;;;;;2.58;2.00;;;-7.00;99.90;;;;;;2124648;67;20056;-70
2021/12/26 05:04:54;;;;;;;;;;;-7.20;99.90;;;;;;2110337;67;20863;-69
2021/12/26 05:07:37;;;;;;;3.85;1.73;;;-7.10;99.90;;;;;;2110847;67;20074;-70
2021/12/26 05:10:19;;;;;;;3.03;1.75;;;-7.10;99.90;;;;;;2105395;67;20384;-69
2021/12/26 05:13:03;;;;;;;3.47;1.70;;;-7.10;99.90;;;;;;2116359;67;20173;-69
2021/12/26 05:15:46;;;;;;;3.17;2.08;;;-7.10;99.90;;;;;;2107523;67;20356;-69
2021/12/26 05:18:30;;;;;;;;;;;-7.00;99.90;;;;;;2135069;66;20183;-69
2021/12/26 05:21:12;;;;;;;2.55;1.70;;;-7.00;99.90;;;;;;2120797;67;20153;-70
2021/12/26 05:23:54;;;;;;;5.57;2.13;;;-6.70;99.90;;;;;;2118136;67;21098;-68
2021/12/26 05:26:40;;;;;;;2.55;1.45;;;-7.10;99.90;;;;;;2139750;66;20314;-69
2021/12/26 05:29:24;;;;;;;3.00;1.88;;;-7.10;99.90;;;;;;2137253;67;20259;-70
2021/12/26 05:32:08;;;;;;;1.85;1.27;;;-7.10;99.90;;;;;;2154881;66;20236;-69
2021/12/26 05:34:53;;;;;;;4.85;1.90;;;-7.10;99.90;;;;;;2170883;65;20243;-70
2021/12/26 05:37:35;;;;;;;3.80;1.33;;;-7.20;99.90;;;;;;2174382;65;20796;-68
2021/12/26 05:40:17;;;;;;;2.17;1.73;;;-6.00;99.90;;;;;;2174141;65;20246;-69
2021/12/26 05:43:00;;;;;;;3.95;1.58;;;-7.10;99.90;;;;;;2174869;65;20332;-69
2021/12/26 05:45:45;;;;;;;2.70;1.73;;;-7.10;99.90;;;;;;2168459;65;20196;-70
2021/12/26 05:48:31;;;;;;;2.85;1.80;;;-7.10;99.90;;;;;;2174253;65;20360;-70
2021/12/26 05:51:16;;;;;;;4.25;2.45;;;-7.10;99.90;;;;;;2155824;66;20301;-69
2021/12/26 05:53:58;;;;;;;2.35;1.67;;;-7.10;99.90;;;;;;2160242;66;20367;-69
2021/12/26 05:56:44;;;;;;;4.15;1.83;;;-7.10;99.90;;;;;;2162990;66;20703;-69
2021/12/26 05:59:28;;;;;;;2.25;1.52;;;-7.10;99.90;;;;;;2171794;65;20239;-69
2021/12/26 06:02:10;;;;;;;3.75;1.77;;;-7.10;99.90;;;;;;2161669;66;20962;-69
2021/12/26 06:04:53;;;;;;;5.32;1.75;;;-7.10;99.90;;;;;;2155917;66;20210;-70
2021/12/26 06:07:38;;;;;;;2.80;1.40;;;-7.10;99.90;;;;;;2146361;66;20341;-70
2021/12/26 06:10:21;;;;;;;4.72;1.55;;;-7.20;99.90;;;;;;2145462;66;20186;-69
2021/12/26 06:13:06;;;;;;;3.38;1.80;;;-7.20;99.90;;;;;;2146168;66;20682;-68
2021/12/26 06:15:48;;;;;;;5.30;2.00;;;-7.20;99.90;;;;;;2138498;67;20190;-70
2021/12/26 06:18:30;;;;;;;3.85;2.08;;;-7.10;99.90;;;;;;2132178;67;20219;-69
2021/12/26 06:21:11;;;;;;;3.85;1.90;;;-7.10;99.90;;;;;;2139995;66;20237;-68
2021/12/26 06:23:52;;;;;;;3.38;1.67;;;-7.10;99.90;;;;;;2135155;67;20179;-69
2021/12/26 06:26:34;;;;;;;2.90;1.90;;;-7.10;99.90;;;;;;2124827;67;20340;-69
2021/12/26 06:29:15;;;;;;;3.38;2.13;;;-7.10;99.90;;;;;;2130960;67;20191;-69
2021/12/26 06:31:57;;;;;;;5.35;2.10;;;-7.10;99.90;;;;;;2138856;67;20214;-69
2021/12/26 06:34:38;;;;;;;6.50;1.77;;;-7.10;99.90;;;;;;1910392;67;15083447;-70
2021/12/26 06:37:20;;;;;;;4.22;2.08;;;-7.20;99.90;;;;;;2117634;67;20285;-70
2021/12/26 06:40:01;;;;;;;3.83;2.00;;;-7.20;99.90;;;;;;2131351;67;20803;-70
2021/12/26 06:42:45;;;;;;;7.32;2.15;;;-7.20;99.90;;;;;;2123424;67;20192;-69
2021/12/26 06:45:28;;;;;;;4.53;1.70;;;-7.20;99.90;;;;;;2131620;67;20376;-69
2021/12/26 06:48:09;;;;;;;2.60;1.92;;;-7.20;99.90;;;;;;2146082;66;20162;-69
2021/12/26 06:50:51;;;;;;;2.75;2.00;;;-7.20;99.90;;;;;;2146035;66;20303;-70
2021/12/26 06:53:34;;;;;;;3.38;2.15;;;-7.20;99.90;;;;;;2152726;66;20730;-70
2021/12/26 06:56:21;;;;;;;4.93;2.08;;;-7.20;99.90;;;;;;2160770;66;20188;-70
2021/12/26 06:59:03;;;;;;;5.03;2.17;;;-7.20;99.90;;;;;;2154387;66;20805;-70
2021/12/26 07:01:46;;;;;;;4.43;1.88;;;-7.20;99.90;;;;;;2176445;65;20317;-70
2021/12/26 07:04:35;;;;;;;3.50;1.80;;;-7.10;99.90;;;;;;2187478;65;20204;-70
2021/12/26 07:07:24;;;;;;;3.00;2.05;;;-7.10;99.90;;;;;;2190413;65;20367;-68
2021/12/26 07:10:09;;;;;;;;;;;-7.10;99.90;;;;;;2175726;65;20962;-69
2021/12/26 07:12:50;;;;;;;2.72;1.90;;;-7.20;99.90;;;;;;2188732;65;20261;-69
2021/12/26 07:15:32;;;;;;;3.78;1.90;;;-7.20;99.90;;;;;;2169382;65;20781;-69
2021/12/26 07:18:15;;;;;;;3.42;2.03;;;-7.20;99.90;;;;;;2163863;66;20319;-71
2021/12/26 07:20:57;;;;;;;3.13;2.50;;;-7.20;99.90;;;;;;2163616;66;20368;-70
2021/12/26 07:23:40;;;;;;;2.78;1.90;;;-7.20;99.90;;;;;;2161195;66;20198;-70
2021/12/26 07:26:26;;;;;;;3.28;2.00;;;-7.20;99.90;;;;;;2150450;66;20263;-70
2021/12/26 07:29:10;;;;;;;3.97;2.03;;;-7.20;99.90;;;;;;2168343;65;20227;-69
2021/12/26 07:31:52;;;;;;;6.03;2.72;;;-7.20;99.90;;;;;;2148488;66;20224;-70
2021/12/26 07:34:33;;;;;;;2.70;1.95;;;-7.20;99.90;;;;;;2132764;67;20644;-69
2021/12/26 07:37:15;;;;;;;5.05;2.00;;;-7.20;99.90;;;;;;2120114;67;20185;-68
2021/12/26 07:39:57;;;;;;;5.93;2.78;;;-7.20;99.90;;;;;;2125452;67;20346;-70
2021/12/26 07:42:41;;;;;;;4.50;2.40;;;-7.20;99.90;;;;;;2125430;67;20179;-70
2021/12/26 07:45:25;;;;;;;4.05;2.63;;;-7.20;99.90;;;;;;2104583;68;20301;-69
2021/12/26 07:48:08;;;;;;;7.22;3.35;;;-7.20;99.90;;;;;;2119757;67;20205;-70
2021/12/26 07:50:52;;;;;;;4.23;2.30;;;-7.20;99.90;;;;;;2125821;67;20321;-69
2021/12/26 07:53:34;;;;;;;4.00;2.15;;;-7.20;99.90;;;;;;2111693;67;20935;-69
2021/12/26 07:56:15;;;;;;;4.25;2.42;;;-7.10;99.90;;;;;;2113800;67;20676;-69
2021/12/26 07:58:57;;;;;;;4.40;2.22;;;-7.10;99.90;;;;;;2125866;67;20180;-69
2021/12/26 08:01:42;;;;;;;3.83;2.55;;;-7.10;99.90;;;;;;2132574;67;20266;-69
2021/12/26 08:04:26;;;;;;;3.63;2.13;;;-7.10;99.90;;;;;;2132374;67;20496;-69
2021/12/26 08:07:08;;;;;;;4.85;2.38;;;-7.10;99.90;;;;;;2132688;67;20332;-69
2021/12/26 08:09:51;;;;;;;3.45;2.25;;;-7.10;99.90;;;;;;2139034;66;20335;-70
2021/12/26 08:12:36;;;;;;;4.65;2.63;;;-7.10;99.90;;;;;;2132442;67;20221;-70
2021/12/26 08:15:17;;;;;;;7.03;2.55;;;-7.00;99.90;;;;;;2132503;67;20283;-70
2021/12/26 08:17:59;;;;;;;3.78;2.75;;;-7.00;99.90;;;;;;2125554;67;20320;-68
2021/12/26 08:20:41;;;;;;;8.18;3.30;;;-7.10;99.90;;;;;;2142055;66;20424;-70
2021/12/26 08:23:23;;;;;;;6.03;3.08;;;-7.00;99.90;;;;;;2147327;66;20214;-69
2021/12/26 08:26:05;;;;;;;4.70;2.78;;;-7.00;99.90;;;;;;2153578;66;20253;-70
2021/12/26 08:28:46;;;;;;;3.85;2.75;;;-6.60;99.90;;;;;;2139823;66;20333;-70
2021/12/26 08:31:30;;;;;;;5.03;2.88;;;-7.00;99.90;;;;;;2131565;67;20171;-70
2021/12/26 08:34:19;;;;;;;5.78;2.78;;;-6.90;99.90;;;;;;2139772;66;20657;-70
2021/12/26 08:37:04;;;;;;;5.97;3.58;;;-6.90;99.90;;;;;;2140897;66;20288;-69
2021/12/26 08:39:48;;;;;;;5.38;3.13;;;-6.90;99.90;;;;;;2141020;66;20421;-69
2021/12/26 08:42:32;;;;;;;4.60;2.83;;;-6.90;99.90;;;;;;2146951;66;20219;-70
2021/12/26 08:45:17;;;;;;;3.83;3.00;;;-6.80;99.90;;;;;;2139624;67;20970;-69
2021/12/26 08:48:01;;;;;;;8.02;3.72;;;-6.80;99.90;;;;;;2146507;66;20270;-70
2021/12/26 08:50:45;;;;;;;5.63;2.83;;;-6.80;99.90;;;;;;2133873;67;20238;-70
2021/12/26 08:53:30;;;;;;;4.15;3.10;;;-6.80;99.90;;;;;;2129057;67;20361;-69
2021/12/26 08:56:12;;;;;;;5.35;3.10;;;-6.40;99.90;;;;;;2125285;67;20185;-70
2021/12/26 08:58:53;;;;;;;4.57;3.38;;;-6.70;99.90;;;;;;2120765;67;20267;-70
2021/12/26 09:01:35;;;;;;;4.68;2.88;;;-6.70;99.90;;;;;;2125279;67;20491;-70
2021/12/26 09:04:17;;;;;;;5.22;3.20;;;-6.60;99.90;;;;;;2123936;67;20180;-70
2021/12/26 09:07:03;;;;;;;5.40;3.63;;;-6.50;99.90;;;;;;2129881;67;20491;-70
2021/12/26 09:09:46;;;;;;;6.88;3.65;;;-6.50;99.90;;;;;;2118612;67;20397;-70
2021/12/26 09:12:30;;;;;;;6.05;3.20;;;-6.40;99.90;;;;;;2139528;66;20274;-70
2021/12/26 09:15:14;;;;;;;9.23;3.92;;;-6.40;99.90;;;;;;2139107;67;20752;-70
2021/12/26 09:18:00;;;;;;;6.85;3.45;;;-6.30;99.90;;;;;;2126906;67;20183;-70
2021/12/26 09:20:45;;;;;;;10.45;3.83;;;-6.30;99.90;;;;;;2131367;67;20239;-71
2021/12/26 09:23:27;;;;;;;7.15;3.47;;;-6.20;99.90;;;;;;2108659;67;20231;-70
2021/12/26 09:26:09;;;;;;;3.92;3.13;;;-6.20;99.90;;;;;;2106901;67;20678;-70
2021/12/26 09:28:54;;;;;;;4.88;3.60;;;-6.10;99.90;;;;;;2111675;67;20266;-71
2021/12/26 09:31:37;;;;;;;4.32;3.00;;;-6.00;99.90;;;;;;2112630;67;20356;-70
2021/12/26 09:34:19;;;;;;;7.22;3.65;;;-5.90;99.90;;;;;;2118394;67;20311;-70
2021/12/26 09:37:07;;;;;;;6.72;2.90;;;-5.90;99.90;;;;;;2118030;67;20321;-70
2021/12/26 09:39:49;;;;;;;6.38;3.25;;;-5.80;99.90;;;;;;2118581;67;20201;-70
2021/12/26 09:42:33;;;;;;;6.97;3.22;;;-5.70;99.90;;;;;;2117505;67;20330;-68
2021/12/26 09:45:18;;;;;;;7.03;3.90;;;-4.90;99.90;;;;;;2112629;67;20205;-70
2021/12/26 09:48:01;;;;;;;5.93;3.15;;;-5.60;99.90;;;;;;2111307;67;20605;-70
2021/12/26 09:50:43;;;;;;;3.88;3.22;;;-5.50;99.90;;;;;;2093401;68;20811;-70
2021/12/26 09:53:26;;;;;;;7.68;4.30;;;-5.40;99.90;;;;;;2103854;67;20205;-70
2021/12/26 09:56:08;;;;;;;4.25;2.60;;;-5.30;99.90;;;;;;2120518;67;20200;-71
2021/12/26 09:59:06;;;;;;;8.43;3.50;;;-5.30;99.90;;;;;;2117340;67;20584;-70
2021/12/26 10:01:54;;;;;;;4.28;2.85;;;-5.20;99.90;;;;;;2106872;67;20182;-70
2021/12/26 10:04:39;;;;;;;3.38;2.75;;;-5.10;99.90;;;;;;2111171;67;20407;-69
2021/12/26 10:07:24;;;;;;;7.80;3.25;;;-5.00;99.90;;;;;;2117610;67;20309;-71
2021/12/26 10:10:07;;;;;;;6.03;3.17;;;-4.90;99.90;;;;;;2123440;66;20295;-71
2021/12/26 10:12:48;;;;;;;8.07;3.28;;;-4.80;99.90;;;;;;2128835;67;20172;-70
2021/12/26 10:15:51;;;;;;;6.43;2.90;;;-4.70;99.90;;;;;;2125073;67;20192;-69
2021/12/26 10:18:39;;;;;;;7.80;3.30;;;-4.70;99.90;;;;;;2124882;67;20252;-70
2021/12/26 10:21:32;;;;;;;5.93;2.90;;;-4.50;99.90;;;;;;2124052;67;20422;-70
2021/12/26 10:24:31;;;;;;;3.72;2.47;;;-4.50;99.90;;;;;;2123443;67;20608;-70
2021/12/26 10:27:37;;;;;;;6.68;3.25;;;-4.40;99.90;;;;;;2124027;67;20204;-70
2021/12/26 10:30:24;;;;;;;8.68;2.67;;;-4.30;99.90;;;;;;2112461;67;20169;-70
2021/12/26 10:33:10;;;;;;;3.47;2.47;;;-4.20;99.90;;;;;;2120206;67;20428;-71
2021/12/26 10:36:04;;;;;;;;;;;-4.10;99.90;;;;;;2122398;67;20450;-70
2021/12/26 10:39:07;;;;;;;3.45;2.63;;;-4.00;99.90;;;;;;2121140;67;20069;-70
2021/12/26 10:41:51;;;;;;;4.07;2.47;;;-3.70;99.90;;;;;;2110077;67;20205;-70
2021/12/26 10:44:54;;;;;;;5.80;3.13;;;-3.70;99.90;;;;;;2118355;67;20607;-70
2021/12/26 10:47:41;;;;;;;4.88;2.78;;;-3.30;99.90;;;;;;2116741;67;20512;-71
2021/12/26 10:50:24;;;;;;;9.38;3.30;;;-3.60;99.90;;;;;;2125622;67;20541;-69
2021/12/26 10:53:11;;;;;;;6.90;2.75;;;-3.50;99.90;;;;;;2125443;67;20285;-70
2021/12/26 10:55:55;;;;;;;4.28;2.75;;;-3.40;99.90;;;;;;2129012;67;20167;-71
2021/12/26 10:58:37;;;;;;;3.70;2.70;;;-3.30;99.90;;;;;;2137609;67;20187;-71
2021/12/26 11:01:19;;;;;;;4.47;2.78;;;-3.20;99.90;;;;;;2132163;67;20275;-70
2021/12/26 11:04:06;;;;;;;4.10;2.53;;;-3.20;99.90;;;;;;2129849;67;20204;-72
2021/12/26 11:07:05;;;;;;;5.65;3.08;;;-3.10;99.90;;;;;;2111181;67;20203;-70
2021/12/26 11:10:01;;;;;;;6.07;2.97;;;-3.00;99.90;;;;;;2105720;67;20542;-71
2021/12/26 11:12:48;;;;;;;8.40;3.33;;;-2.80;99.90;;;;;;2099735;68;20331;-70
2021/12/26 11:15:36;;;;;;;8.45;3.40;;;-2.50;99.90;;;;;;2110016;67;20744;-71
2021/12/26 11:18:18;;;;;;;4.65;3.20;;;-2.10;99.90;;;;;;2123254;67;20647;-72
2021/12/26 11:21:07;;;;;;;3.95;2.92;;;-1.50;99.90;;;;;;2120384;67;20283;-70
2021/12/26 11:23:55;;;;;;;4.47;2.97;;;-1.80;99.90;;;;;;2112088;67;20411;-69
2021/12/26 11:26:37;;;;;;;3.60;3.05;;;-0.40;99.90;;;;;;2109842;67;20248;-71
2021/12/26 11:29:19;;;;;;;6.10;2.83;;;0.10;99.90;;;;;;2104027;68;20418;-70
2021/12/26 11:32:01;;;;;;;5.45;3.05;;;0.50;99.90;;;;;;2095194;68;20247;-71
2021/12/26 11:34:46;;;;;;;5.00;2.95;;;1.00;99.90;;;;;;2090121;68;20749;-72
2021/12/26 11:37:31;;;;;;;6.55;3.30;;;1.30;99.90;;;;;;2106369;67;20270;-71
2021/12/26 11:40:16;;;;;;;4.70;3.17;;;1.50;99.90;;;;;;2117496;67;20177;-72
2021/12/26 11:43:21;;;;;;;5.68;3.20;;;1.70;99.90;;;;;;2141113;66;20276;-70
2021/12/26 11:46:46;;;;;;;7.13;3.22;;;1.80;99.90;;;;;;2141688;66;20444;-71
2021/12/26 11:49:39;;;;;;;5.35;3.17;;;1.90;99.90;;;;;;2150238;66;20752;-71
2021/12/26 11:52:42;;;;;;;8.98;2.85;;;1.90;99.90;;;;;;2132217;67;20224;-71
2021/12/26 11:55:26;;;;;;;6.45;3.55;;;1.80;99.90;;;;;;2132144;67;20731;-71
2021/12/26 11:58:21;;;;;;;6.63;3.20;;;1.80;99.90;;;;;;2137494;66;20222;-72
2021/12/26 12:01:04;;;;;;;4.47;3.40;;;1.70;99.90;;;;;;2139628;67;20190;-70
2021/12/26 12:03:46;;;;;;;5.40;3.15;;;2.00;99.90;;;;;;2137886;66;20171;-71
2021/12/26 12:06:30;;;;;;;5.20;3.22;;;1.40;99.90;;;;;;2143459;66;20404;-70
2021/12/26 12:09:39;;;;;;;5.65;3.08;;;1.20;99.90;;;;;;2139076;67;20332;-71
2021/12/26 12:12:22;;;;;;;21.30;4.05;;;1.30;99.70;;;;;;2146157;66;20162;-70
2021/12/26 12:15:03;;;;;;;5.22;2.90;;;1.00;99.90;;;;;;2146979;66;20238;-70
2021/12/26 12:18:05;;;;;;;6.30;3.42;;;0.90;99.40;;;;;;2132332;67;20321;-70
2021/12/26 12:21:06;;;;;;;7.88;3.97;;;0.90;99.90;;;;;;2145207;66;20334;-70
2021/12/26 12:24:11;;;;;;;6.70;2.97;;;0.90;99.90;;;;;;2146294;66;20728;-71
2021/12/26 12:27:01;;;;;;;5.47;3.22;;;1.10;99.50;;;;;;2130934;67;20481;-70
2021/12/26 12:29:42;;;;;;;7.07;3.00;;;1.20;99.90;;;;;;2131940;67;20842;-71
2021/12/26 12:32:28;;;;;;;3.65;3.20;;;1.30;99.90;;;;;;2131210;67;20438;-71
2021/12/26 12:35:16;;;;;;;5.80;3.83;;;1.50;99.90;;;;;;2109314;67;20272;-71
2021/12/26 12:38:18;;;;;;;3.65;2.85;;;1.90;99.90;;;;;;2124428;67;20197;-71
2021/12/26 12:41:07;;;;;;;7.88;3.20;;;2.30;99.90;;;;;;2131755;67;20341;-72
2021/12/26 12:43:49;;;;;;;15.70;4.05;;;3.00;99.90;;;;;;2132197;67;20741;-71
2021/12/26 12:46:33;;;;;;;6.05;2.95;;;3.50;99.90;;;;;;2150883;66;20823;-71
2021/12/26 12:49:20;;;;;;;6.32;3.22;;;4.10;99.30;;;;;;2157077;66;20409;-71
2021/12/26 12:52:23;;;;;;;4.03;2.70;;;4.70;98.30;;;;;;2148525;66;20269;-70
2021/12/26 12:55:34;;;;;;;12.18;4.40;;;5.20;95.80;;;;;;2141826;66;20244;-70
2021/12/26 12:58:22;;;;;;;4.57;3.03;;;5.60;93.50;;;;;;2134189;67;20735;-71
2021/12/26 13:01:06;;;;;;;6.30;2.95;;;6.10;86.40;;;;;;2139247;66;20580;-71
2021/12/26 13:04:00;;;;;;;3.92;2.80;;;6.50;86.90;;;;;;2132256;67;20434;-70
2021/12/26 13:07:07;;;;;;;6.82;3.10;;;6.80;81.60;;;;;;2141615;66;20386;-71
2021/12/26 13:09:52;;;;;;;4.15;3.25;;;7.00;77.90;;;;;;2132333;67;20211;-71
2021/12/26 13:12:36;;;;;;;4.88;2.88;;;7.20;76.00;;;;;;2124070;67;20254;-71
2021/12/26 13:15:20;;;;;;;;;;;7.30;73.30;;;;;;2138841;66;20291;-73
2021/12/26 13:18:07;;;;;;;5.65;3.30;;;7.30;74.00;;;;;;2136653;66;20089;-70
2021/12/26 13:20:51;;;;;;;7.00;3.42;;;7.20;71.60;;;;;;2126581;67;21134;-71
2021/12/26 13:23:38;;;;;;;4.78;3.20;;;6.90;68.60;;;;;;2124476;67;20654;-70
2021/12/26 13:26:21;;;;;;;4.85;3.35;;;6.50;68.10;;;;;;2116258;67;20288;-70
2021/12/26 13:29:08;;;;;;;4.57;3.58;;;6.60;68.20;;;;;;2120184;67;20336;-71
2021/12/26 13:31:55;;;;;;;4.00;2.97;;;5.70;67.90;;;;;;2139762;66;20174;-70
2021/12/26 13:34:41;;;;;;;7.47;3.40;;;5.50;68.90;;;;;;2160555;66;20263;-72
2021/12/26 13:37:31;;;;;;;;;;;5.70;69.00;;;;;;2156359;66;20826;-71
2021/12/26 13:40:15;;;;;;;4.65;2.97;;;5.20;70.40;;;;;;2153375;66;20618;-71
2021/12/26 13:42:59;;;;;;;11.23;3.78;;;4.70;69.90;;;;;;2146057;66;20178;-71
2021/12/26 13:45:45;;;;;;;7.40;3.00;;;4.80;70.10;;;;;;2142643;66;20311;-70
2021/12/26 13:48:35;;;;;;;6.72;2.72;;;3.80;70.10;;;;;;2137605;66;20186;-71
2021/12/26 13:51:29;;;;;;;4.47;3.22;;;3.50;70.00;;;;;;2122201;67;20165;-70
2021/12/26 13:54:16;;;;;;;5.70;2.70;;;3.10;70.40;;;;;;2118772;67;20339;-71
2021/12/26 13:57:20;;;;;;;5.00;3.05;;;2.80;71.10;;;;;;2110971;67;20352;-70
2021/12/26 14:00:05;;;;;;;3.97;2.50;;;2.50;71.00;;;;;;2117389;67;20181;-70
2021/12/26 14:02:47;;;;;;;2.95;2.67;;;2.20;71.90;;;;;;2112839;67;20197;-72
2021/12/26 14:05:30;;;;;;;4.07;2.20;;;1.90;72.40;;;;;;2109714;67;20168;-70
2021/12/26 14:08:15;;;;;;;6.60;2.55;;;1.70;72.60;;;;;;2120000;67;20415;-70
2021/12/26 14:11:07;;;;;;;4.68;3.00;;;1.50;73.20;;;;;;2137243;67;20206;-71
2021/12/26 14:13:56;;;;;;;4.22;2.65;;;1.30;73.70;;;;;;2143884;66;20274;-70
2021/12/26 14:16:43;;;;;;;4.53;2.50;;;1.10;74.50;;;;;;2129186;67;20231;-72
2021/12/26 14:19:28;;;;;;;3.58;2.42;;;1.00;75.00;;;;;;2146427;66;20311;-70
2021/12/26 14:22:23;;;;;;;3.50;2.65;;;0.80;75.80;;;;;;2138472;66;20233;-71
2021/12/26 14:25:10;;;;;;;4.93;3.15;;;0.50;76.10;;;;;;2132697;67;20263;-70
2021/12/26 14:27:52;;;;;;;5.07;2.67;;;0.60;76.60;;;;;;2126245;67;20291;-71
2021/12/26 14:30:37;;;;;;;3.55;2.28;;;0.50;76.90;;;;;;2125561;67;20278;-70
2021/12/26 14:33:19;;;;;;;5.55;2.63;;;0.40;77.60;;;;;;2118465;67;20189;-71